Time;durP1;ratioP1;P1;durP2;ratioP2;P2;SDS_P1;SDS_P2;PMS_P1;PMS_P2;Temp;Humidity;BMP_temperature;BMP_pressure;BME280_temperature;BME280_humidity;BME280_pressure;Samples;Min_cycle;Max_cycle;Signal;HPM_P1;HPM_P2
2022/05/27 00:02:07;;;;;;;12.43;4.00;;;;;;;;;;5017419;28;20050;-76
2022/05/27 00:04:33;;;;;;;14.07;4.18;;;;;;;;;;5012262;28;20519;-76
2022/05/27 00:06:59;;;;;;;12.57;3.80;;;;;;;;;;5008428;28;20050;-76
2022/05/27 00:09:25;;;;;;;12.40;3.70;;;;;;;;;;5010700;28;20938;-75
2022/05/27 00:11:51;;;;;;;11.65;3.30;;;;;;;;;;5012152;28;20053;-74
2022/05/27 00:14:17;;;;;;;10.65;3.78;;;;;;;;;;5012809;28;20069;-74
2022/05/27 00:16:43;;;;;;;13.55;3.63;;;;;;;;;;5006560;28;20125;-75
2022/05/27 00:19:09;;;;;;;11.95;3.55;;;;;;;;;;5009673;28;20460;-75
2022/05/27 00:21:35;;;;;;;12.27;3.20;;;;;;;;;;5006761;28;20040;-75
2022/05/27 00:24:01;;;;;;;11.93;3.17;;;;;;;;;;5004531;28;20050;-76
2022/05/27 00:26:27;;;;;;;11.88;2.95;;;;;;;;;;5004952;28;20484;-75
2022/05/27 00:28:53;;;;;;;11.75;3.08;;;;;;;;;;5005137;28;20042;-75
2022/05/27 00:31:20;;;;;;;10.98;2.97;;;;;;;;;;5006323;28;20045;-75
2022/05/27 00:33:46;;;;;;;13.15;3.13;;;;;;;;;;5002571;28;20050;-75
2022/05/27 00:36:14;;;;;;;9.35;3.25;;;;;;;;;;5004915;28;20091;-75
2022/05/27 00:38:40;;;;;;;9.43;3.40;;;;;;;;;;5011270;28;20097;-76
2022/05/27 00:41:06;;;;;;;10.52;3.42;;;;;;;;;;5012426;28;20484;-75
2022/05/27 00:43:32;;;;;;;11.50;3.28;;;;;;;;;;5011730;28;20623;-75
2022/05/27 00:46:04;;;;;;;13.25;2.97;;;;;;;;;;5011148;28;20049;-75
2022/05/27 00:48:32;;;;;;;12.63;3.15;;;;;;;;;;5013483;28;20068;-75
2022/05/27 00:50:58;;;;;;;11.30;3.10;;;;;;;;;;5014393;28;20153;-75
2022/05/27 00:53:34;;;;;;;10.07;2.58;;;;;;;;;;5012589;28;20674;-75
2022/05/27 00:56:00;;;;;;;9.35;2.95;;;;;;;;;;4995136;28;20393;-75
2022/05/27 00:58:31;;;;;;;9.25;2.53;;;;;;;;;;4995560;28;20070;-75
2022/05/27 01:00:57;;;;;;;8.63;2.70;;;;;;;;;;5012591;28;20049;-75
2022/05/27 01:03:25;;;;;;;13.15;3.05;;;;;;;;;;5010750;28;20049;-76
2022/05/27 01:05:51;;;;;;;8.77;2.65;;;;;;;;;;5005784;28;20038;-74
2022/05/27 01:08:19;;;;;;;10.15;3.75;;;;;;;;;;5011377;28;20053;-74
2022/05/27 01:10:54;;;;;;;9.82;3.30;;;;;;;;;;5007245;28;20101;-75
2022/05/27 01:13:25;;;;;;;11.85;3.20;;;;;;;;;;5005841;28;20570;-75
2022/05/27 01:15:51;;;;;;;11.23;3.17;;;;;;;;;;5011000;28;20121;-75
2022/05/27 01:20:18;;;;;;;11.77;3.20;;;;;;;;;;5008511;28;20050;-76
2022/05/27 01:21:14;;;;;;;11.85;3.22;;;;;;;;;;5014245;28;20130;-75
2022/05/27 01:23:49;;;;;;;11.93;3.67;;;;;;;;;;5011462;28;20040;-75
2022/05/27 01:26:17;;;;;;;12.23;3.60;;;;;;;;;;5009383;28;20049;-75
2022/05/27 01:28:45;;;;;;;11.93;3.63;;;;;;;;;;5010667;28;20042;-75
2022/05/27 01:31:26;;;;;;;9.70;3.20;;;;;;;;;;5014304;28;20064;-75
2022/05/27 01:34:16;;;;;;;13.52;3.42;;;;;;;;;;5008400;28;20038;-75
2022/05/27 01:36:48;;;;;;;16.08;4.10;;;;;;;;;;5013319;28;20038;-75
2022/05/27 01:39:15;;;;;;;10.60;3.30;;;;;;;;;;5009464;28;20046;-75
2022/05/27 01:42:00;;;;;;;10.35;3.25;;;;;;;;;;5012131;28;20082;-74
2022/05/27 01:44:45;;;;;;;12.95;4.05;;;;;;;;;;5010832;28;20065;-74
2022/05/27 01:47:15;;;;;;;12.77;3.72;;;;;;;;;;5012213;28;20046;-74
2022/05/27 01:49:45;;;;;;;13.32;3.88;;;;;;;;;;5011342;28;20095;-75
2022/05/27 01:52:11;;;;;;;12.38;3.95;;;;;;;;;;5013765;28;20038;-74
2022/05/27 01:54:51;;;;;;;16.75;4.03;;;;;;;;;;5011241;28;20104;-75
2022/05/27 01:57:40;;;;;;;10.80;3.88;;;;;;;;;;5013134;28;20046;-74
2022/05/27 02:00:16;;;;;;;13.18;4.07;;;;;;;;;;5001510;28;20136;-75
2022/05/27 02:02:48;;;;;;;13.30;4.20;;;;;;;;;;5011290;28;20101;-74
2022/05/27 02:05:22;;;;;;;13.25;4.22;;;;;;;;;;5012045;28;20048;-74
2022/05/27 02:07:57;;;;;;;17.98;4.15;;;;;;;;;;5008279;28;20404;-75
2022/05/27 02:10:27;;;;;;;13.40;4.20;;;;;;;;;;4993810;28;20057;-75
2022/05/27 02:12:57;;;;;;;14.25;4.40;;;;;;;;;;5006260;28;20744;-75
2022/05/27 02:15:28;;;;;;;10.73;3.70;;;;;;;;;;5005425;28;20152;-75
2022/05/27 02:17:58;;;;;;;15.98;4.20;;;;;;;;;;5013039;28;20542;-75
2022/05/27 02:20:28;;;;;;;13.82;4.07;;;;;;;;;;5012136;28;20048;-75
2022/05/27 02:22:59;;;;;;;16.35;4.40;;;;;;;;;;5011896;28;20048;-75
2022/05/27 02:25:28;;;;;;;15.68;4.30;;;;;;;;;;5012679;28;20050;-76
2022/05/27 02:27:57;;;;;;;16.65;4.18;;;;;;;;;;5011976;28;20468;-75
2022/05/27 02:30:29;;;;;;;15.20;4.63;;;;;;;;;;5012017;28;20140;-75
2022/05/27 02:36:06;;;;;;;17.08;3.80;;;;;;;;;;4979741;28;20054;-74
2022/05/27 02:38:32;;;;;;;16.42;3.50;;;;;;;;;;5010776;28;20069;-75
2022/05/27 02:41:12;;;;;;;15.88;3.72;;;;;;;;;;5009594;28;20038;-75
2022/05/27 02:43:53;;;;;;;15.13;3.83;;;;;;;;;;4998595;28;20042;-75
2022/05/27 02:46:38;;;;;;;16.73;3.72;;;;;;;;;;5009401;28;20045;-75
2022/05/27 02:49:16;;;;;;;15.80;3.70;;;;;;;;;;5005585;28;20050;-75
2022/05/27 02:51:50;;;;;;;17.77;3.72;;;;;;;;;;5013165;28;20072;-75
2022/05/27 02:54:15;;;;;;;21.27;3.92;;;;;;;;;;5010347;28;20053;-75
2022/05/27 02:56:50;;;;;;;17.20;3.67;;;;;;;;;;5013616;28;20042;-75
2022/05/27 02:59:18;;;;;;;15.48;3.85;;;;;;;;;;5012453;28;20045;-74
2022/05/27 03:01:47;;;;;;;14.77;3.70;;;;;;;;;;5011937;28;20452;-75
2022/05/27 03:04:13;;;;;;;16.58;3.88;;;;;;;;;;5009376;28;20054;-75
2022/05/27 03:06:59;;;;;;;19.23;3.30;;;;;;;;;;5010791;28;20038;-75
2022/05/27 03:09:35;;;;;;;17.75;3.85;;;;;;;;;;5011981;28;20124;-75
2022/05/27 03:12:10;;;;;;;16.55;4.00;;;;;;;;;;5012304;28;20058;-75
2022/05/27 03:14:38;;;;;;;16.55;4.05;;;;;;;;;;5008437;28;20062;-75
2022/05/27 03:17:08;;;;;;;16.45;3.75;;;;;;;;;;4993002;28;20050;-74
2022/05/27 03:19:47;;;;;;;16.23;3.65;;;;;;;;;;4992905;28;20081;-74
2022/05/27 03:22:22;;;;;;;17.10;3.53;;;;;;;;;;5000952;28;20133;-74
2022/05/27 03:24:51;;;;;;;17.10;3.80;;;;;;;;;;5009499;28;20048;-75
2022/05/27 03:27:20;;;;;;;18.20;3.70;;;;;;;;;;5012721;28;20042;-75
2022/05/27 03:29:54;;;;;;;15.52;3.40;;;;;;;;;;5010953;28;20046;-74
2022/05/27 03:32:25;;;;;;;17.40;3.60;;;;;;;;;;5010380;28;20044;-75
2022/05/27 03:34:51;;;;;;;;;;;;;;;;;;4993226;28;20049;-76
2022/05/27 03:37:20;;;;;;;17.55;3.50;;;;;;;;;;5005439;28;19928;-75
2022/05/27 03:39:49;;;;;;;17.73;3.60;;;;;;;;;;4998014;28;20086;-74
2022/05/27 03:42:18;;;;;;;16.13;3.45;;;;;;;;;;4997008;28;20136;-75
2022/05/27 03:44:58;;;;;;;13.13;2.83;;;;;;;;;;5014295;28;20053;-74
2022/05/27 03:47:24;;;;;;;18.42;3.42;;;;;;;;;;5012989;28;20042;-74
2022/05/27 03:49:49;;;;;;;12.55;3.13;;;;;;;;;;4998986;28;20112;-75
2022/05/27 03:52:18;;;;;;;15.00;3.33;;;;;;;;;;4997139;28;20097;-75
2022/05/27 03:54:45;;;;;;;14.20;3.10;;;;;;;;;;5013956;28;20049;-75
2022/05/27 03:57:11;;;;;;;13.02;3.55;;;;;;;;;;5015743;28;20045;-75
2022/05/27 03:59:37;;;;;;;14.05;3.53;;;;;;;;;;5015090;28;20052;-75
2022/05/27 04:02:03;;;;;;;17.83;3.72;;;;;;;;;;5015706;28;20042;-75
2022/05/27 04:04:29;;;;;;;16.42;3.58;;;;;;;;;;5006120;28;20053;-75
2022/05/27 04:06:56;;;;;;;16.65;3.35;;;;;;;;;;5012326;28;20041;-75
2022/05/27 04:09:23;;;;;;;18.35;3.20;;;;;;;;;;5013678;28;20053;-75
2022/05/27 04:11:50;;;;;;;14.30;3.17;;;;;;;;;;5014139;28;20049;-75
2022/05/27 04:14:16;;;;;;;18.77;3.72;;;;;;;;;;5010707;28;20085;-75
2022/05/27 04:16:42;;;;;;;18.67;3.92;;;;;;;;;;5001314;28;20057;-75
2022/05/27 04:19:09;;;;;;;15.70;3.88;;;;;;;;;;5011434;28;20045;-75
2022/05/27 04:21:35;;;;;;;14.73;3.22;;;;;;;;;;5015604;28;20172;-75
2022/05/27 04:24:01;;;;;;;18.27;4.05;;;;;;;;;;4998714;28;20058;-74
2022/05/27 04:26:27;;;;;;;15.65;3.20;;;;;;;;;;5011639;28;20496;-75
2022/05/27 04:28:53;;;;;;;14.95;3.80;;;;;;;;;;5015402;28;20428;-75
2022/05/27 04:31:19;;;;;;;12.20;2.85;;;;;;;;;;5014205;28;20404;-76
2022/05/27 04:33:45;;;;;;;17.95;3.10;;;;;;;;;;5009048;28;20407;-75
2022/05/27 04:36:12;;;;;;;14.30;3.22;;;;;;;;;;4997009;28;20046;-75
2022/05/27 04:38:38;;;;;;;14.00;3.72;;;;;;;;;;5014049;28;20049;-75
2022/05/27 04:41:05;;;;;;;11.63;3.63;;;;;;;;;;5008912;28;20046;-75
2022/05/27 04:43:31;;;;;;;14.80;3.20;;;;;;;;;;5014660;28;20124;-75
2022/05/27 04:45:57;;;;;;;11.98;2.65;;;;;;;;;;5002956;28;20375;-75
2022/05/27 04:48:23;;;;;;;16.23;3.13;;;;;;;;;;5007069;28;20058;-75
2022/05/27 04:50:49;;;;;;;17.42;2.70;;;;;;;;;;4995610;28;20046;-75
2022/05/27 04:53:15;;;;;;;15.00;3.03;;;;;;;;;;5012744;28;20049;-75
2022/05/27 04:55:42;;;;;;;14.73;3.17;;;;;;;;;;5005446;28;20120;-75
2022/05/27 04:58:10;;;;;;;14.60;2.78;;;;;;;;;;5014343;28;20050;-75
2022/05/27 05:00:41;;;;;;;16.55;3.33;;;;;;;;;;5013906;28;20053;-75
2022/05/27 05:03:08;;;;;;;12.18;2.92;;;;;;;;;;5014749;28;20064;-75
2022/05/27 05:05:35;;;;;;;17.48;3.25;;;;;;;;;;5012772;28;20502;-74
2022/05/27 05:08:04;;;;;;;17.10;3.85;;;;;;;;;;5008166;28;20047;-75
2022/05/27 05:10:30;;;;;;;16.58;3.35;;;;;;;;;;5013945;28;20496;-74
2022/05/27 05:12:57;;;;;;;14.65;3.53;;;;;;;;;;5011619;28;20125;-74
2022/05/27 05:15:24;;;;;;;18.00;3.47;;;;;;;;;;5003157;28;20052;-73
2022/05/27 05:17:51;;;;;;;20.00;3.83;;;;;;;;;;5009894;28;20116;-75
2022/05/27 05:20:19;;;;;;;20.85;4.38;;;;;;;;;;4993680;28;20539;-75
2022/05/27 05:22:45;;;;;;;14.10;3.08;;;;;;;;;;5011616;28;20034;-75
2022/05/27 05:25:11;;;;;;;18.02;3.42;;;;;;;;;;5010295;28;20038;-74
2022/05/27 05:27:40;;;;;;;15.07;2.80;;;;;;;;;;5006975;28;20460;-74
2022/05/27 05:30:08;;;;;;;17.13;3.60;;;;;;;;;;5010886;28;20065;-76
2022/05/27 05:32:34;;;;;;;11.73;2.97;;;;;;;;;;5018743;28;20507;-75
2022/05/27 05:35:00;;;;;;;15.63;2.97;;;;;;;;;;5010719;28;20048;-75
2022/05/27 05:37:26;;;;;;;15.32;3.00;;;;;;;;;;5013330;28;20042;-75
2022/05/27 05:39:53;;;;;;;14.32;2.85;;;;;;;;;;5012650;28;20125;-75
2022/05/27 05:42:20;;;;;;;14.80;2.85;;;;;;;;;;4996935;28;20497;-74
2022/05/27 05:44:46;;;;;;;15.70;3.20;;;;;;;;;;5010541;28;20050;-75
2022/05/27 05:47:13;;;;;;;16.50;3.13;;;;;;;;;;5011859;28;20050;-75
2022/05/27 05:49:39;;;;;;;15.10;3.13;;;;;;;;;;5013538;28;20385;-75
2022/05/27 05:52:05;;;;;;;16.08;2.63;;;;;;;;;;5005200;28;20053;-74
2022/05/27 05:54:31;;;;;;;14.05;3.08;;;;;;;;;;4995355;28;20050;-75
2022/05/27 05:57:01;;;;;;;15.90;2.53;;;;;;;;;;5007550;28;20156;-75
2022/05/27 05:59:31;;;;;;;18.65;3.90;;;;;;;;;;5013014;28;20052;-76
2022/05/27 06:01:58;;;;;;;14.07;3.30;;;;;;;;;;5009376;28;20065;-74
2022/05/27 06:04:24;;;;;;;12.63;2.80;;;;;;;;;;4997257;28;20074;-76
2022/05/27 06:06:51;;;;;;;13.90;2.90;;;;;;;;;;4992842;28;20053;-75
2022/05/27 06:09:18;;;;;;;13.30;3.03;;;;;;;;;;5007279;28;20042;-75
2022/05/27 06:11:44;;;;;;;15.57;3.03;;;;;;;;;;5010615;28;20111;-74
2022/05/27 06:14:10;;;;;;;14.70;2.70;;;;;;;;;;5011898;28;20045;-75
2022/05/27 06:16:36;;;;;;;12.75;2.70;;;;;;;;;;5013264;28;20081;-74
2022/05/27 06:19:03;;;;;;;16.98;3.13;;;;;;;;;;5005363;28;20096;-74
2022/05/27 06:21:29;;;;;;;16.05;2.65;;;;;;;;;;5004420;28;20049;-75
2022/05/27 06:23:55;;;;;;;11.23;2.60;;;;;;;;;;5007349;28;20055;-75
2022/05/27 06:26:21;;;;;;;11.50;2.63;;;;;;;;;;5012425;28;20100;-75
2022/05/27 06:34:23;;;;;;;14.57;2.85;;;;;;;;;;5012285;28;20508;-75
2022/05/27 06:36:50;;;;;;;14.07;2.45;;;;;;;;;;5012834;28;20086;-75
2022/05/27 06:39:17;;;;;;;14.82;3.05;;;;;;;;;;5010731;28;20053;-75
2022/05/27 06:41:43;;;;;;;12.75;2.75;;;;;;;;;;5019344;28;20053;-76
2022/05/27 06:44:09;;;;;;;12.88;3.05;;;;;;;;;;5011965;28;20042;-76
2022/05/27 06:46:35;;;;;;;14.82;2.85;;;;;;;;;;5004705;28;20046;-76
2022/05/27 06:49:02;;;;;;;15.20;3.22;;;;;;;;;;4993452;28;20592;-75
2022/05/27 06:51:29;;;;;;;12.55;2.67;;;;;;;;;;5000626;28;20381;-74
2022/05/27 06:53:55;;;;;;;12.45;2.80;;;;;;;;;;5012634;28;20100;-75
2022/05/27 06:56:21;;;;;;;15.90;3.38;;;;;;;;;;5012577;28;20404;-75
2022/05/27 06:58:47;;;;;;;15.13;3.28;;;;;;;;;;5017272;28;20132;-74
2022/05/27 07:01:14;;;;;;;14.70;2.60;;;;;;;;;;5013135;28;20053;-75
2022/05/27 07:03:40;;;;;;;13.52;2.80;;;;;;;;;;5013329;28;20046;-75
2022/05/27 07:06:10;;;;;;;12.77;2.63;;;;;;;;;;5011454;28;20099;-76
2022/05/27 07:08:37;;;;;;;14.27;3.20;;;;;;;;;;5016764;28;20050;-74
2022/05/27 07:11:03;;;;;;;14.07;3.20;;;;;;;;;;5016307;28;20058;-76
2022/05/27 07:13:30;;;;;;;12.55;2.85;;;;;;;;;;5017038;28;20497;-75
2022/05/27 07:15:56;;;;;;;15.32;2.80;;;;;;;;;;5015558;28;20038;-75
2022/05/27 07:18:22;;;;;;;14.80;2.92;;;;;;;;;;5015559;28;20556;-75
2022/05/27 07:20:48;;;;;;;12.88;2.80;;;;;;;;;;5015511;28;20044;-75
2022/05/27 07:23:14;;;;;;;12.75;2.78;;;;;;;;;;5012095;28;20114;-75
2022/05/27 07:25:40;;;;;;;9.75;2.42;;;;;;;;;;5011600;28;20050;-74
2022/05/27 07:28:07;;;;;;;14.23;3.00;;;;;;;;;;5010678;28;20046;-74
2022/05/27 07:30:33;;;;;;;14.23;2.70;;;;;;;;;;5005709;28;20411;-73
2022/05/27 07:32:59;;;;;;;14.13;3.05;;;;;;;;;;5010284;28;20046;-73
2022/05/27 07:35:25;;;;;;;13.73;2.78;;;;;;;;;;5011327;28;20068;-74
2022/05/27 07:37:51;;;;;;;13.75;2.67;;;;;;;;;;5015937;28;20046;-74
2022/05/27 07:40:18;;;;;;;12.95;2.83;;;;;;;;;;5014049;28;20101;-73
2022/05/27 07:42:44;;;;;;;14.77;2.90;;;;;;;;;;5016328;28;20074;-74
2022/05/27 07:45:10;;;;;;;14.20;2.80;;;;;;;;;;5014729;28;20483;-75
2022/05/27 07:47:36;;;;;;;13.93;2.80;;;;;;;;;;5015901;28;20057;-75
2022/05/27 07:50:03;;;;;;;12.95;2.75;;;;;;;;;;5016459;28;20046;-74
2022/05/27 07:52:30;;;;;;;15.85;2.95;;;;;;;;;;5015316;28;20046;-74
2022/05/27 07:54:56;;;;;;;15.02;3.00;;;;;;;;;;5013164;28;20381;-74
2022/05/27 07:57:23;;;;;;;11.20;2.85;;;;;;;;;;5015958;28;20220;-74
2022/05/27 07:59:55;;;;;;;14.07;3.13;;;;;;;;;;5009159;28;20049;-75
2022/05/27 08:02:25;;;;;;;14.85;2.55;;;;;;;;;;4999836;28;20061;-75
2022/05/27 08:04:52;;;;;;;11.52;2.70;;;;;;;;;;5015432;28;20084;-75
2022/05/27 08:07:19;;;;;;;10.95;2.70;;;;;;;;;;5016590;28;20458;-76
2022/05/27 08:09:45;;;;;;;10.88;2.80;;;;;;;;;;5015894;28;20056;-75
2022/05/27 08:12:11;;;;;;;13.00;2.78;;;;;;;;;;5015227;28;20515;-75
2022/05/27 08:14:37;;;;;;;12.80;2.67;;;;;;;;;;5011524;28;20137;-74
2022/05/27 08:17:03;;;;;;;14.38;2.40;;;;;;;;;;5014048;28;20042;-75
2022/05/27 08:19:29;;;;;;;13.15;2.75;;;;;;;;;;5014079;28;20523;-76
2022/05/27 08:21:55;;;;;;;13.23;2.90;;;;;;;;;;5015307;28;20038;-75
2022/05/27 08:24:21;;;;;;;15.65;2.85;;;;;;;;;;5015330;28;20100;-74
2022/05/27 08:26:47;;;;;;;12.93;2.90;;;;;;;;;;5014639;28;20038;-75
2022/05/27 08:29:14;;;;;;;13.10;2.38;;;;;;;;;;5015154;28;20045;-75
2022/05/27 08:31:40;;;;;;;12.40;2.60;;;;;;;;;;5004969;28;20093;-76
2022/05/27 08:39:37;;;;;;;14.68;2.78;;;;;;;;;;5013782;28;20127;-74
2022/05/27 08:42:18;;;;;;;11.00;2.22;;;;;;;;;;5014508;28;20038;-75
2022/05/27 08:44:44;;;;;;;14.30;2.50;;;;;;;;;;5015237;28;20041;-75
2022/05/27 08:47:14;;;;;;;12.27;2.60;;;;;;;;;;5014868;28;20493;-76
2022/05/27 08:49:42;;;;;;;12.40;2.83;;;;;;;;;;5014155;28;20531;-75
2022/05/27 08:52:14;;;;;;;14.60;2.72;;;;;;;;;;5011929;28;20045;-74
2022/05/27 08:54:47;;;;;;;12.23;2.33;;;;;;;;;;5014650;28;20186;-75
2022/05/27 09:00:01;;;;;;;12.27;2.20;;;;;;;;;;4995087;28;20062;-75
2022/05/27 09:02:41;;;;;;;12.80;2.55;;;;;;;;;;4994838;28;20485;-74
2022/05/27 09:05:14;;;;;;;10.73;2.35;;;;;;;;;;5009823;28;20041;-75
2022/05/27 09:07:43;;;;;;;11.57;2.65;;;;;;;;;;5013283;28;20056;-75
2022/05/27 09:10:29;;;;;;;10.90;3.00;;;;;;;;;;5007630;28;20092;-75
2022/05/27 09:13:11;;;;;;;13.57;3.25;;;;;;;;;;5011601;28;20057;-75
2022/05/27 09:15:51;;;;;;;13.40;3.10;;;;;;;;;;4993493;28;20129;-74
2022/05/27 09:18:20;;;;;;;12.73;2.40;;;;;;;;;;5014391;28;20045;-74
2022/05/27 09:21:02;;;;;;;9.20;2.40;;;;;;;;;;5013208;28;20056;-75
2022/05/27 09:23:47;;;;;;;12.02;2.50;;;;;;;;;;5010894;28;20511;-75
2022/05/27 09:26:13;;;;;;;12.68;2.80;;;;;;;;;;5011339;28;20125;-74
2022/05/27 09:28:55;;;;;;;10.90;3.13;;;;;;;;;;5011073;28;20049;-74
2022/05/27 09:31:27;;;;;;;12.50;2.75;;;;;;;;;;5011010;28;20049;-75
2022/05/27 09:33:54;;;;;;;13.82;2.80;;;;;;;;;;5012187;28;20076;-74
2022/05/27 09:36:28;;;;;;;16.17;2.97;;;;;;;;;;5012262;28;20057;-74
2022/05/27 09:38:57;;;;;;;12.32;2.58;;;;;;;;;;5013495;28;20555;-74
2022/05/27 09:41:26;;;;;;;13.07;2.40;;;;;;;;;;5011665;28;20121;-74
2022/05/27 09:44:12;;;;;;;16.90;2.90;;;;;;;;;;5013640;28;20041;-74
2022/05/27 09:46:38;;;;;;;12.05;2.72;;;;;;;;;;5013036;28;20045;-75
2022/05/27 09:49:05;;;;;;;11.60;2.33;;;;;;;;;;5012692;28;20038;-74
2022/05/27 09:51:32;;;;;;;9.75;2.42;;;;;;;;;;5012459;28;20050;-74
2022/05/27 09:54:17;;;;;;;10.38;2.20;;;;;;;;;;5011996;28;20451;-74
2022/05/27 09:56:55;;;;;;;11.98;2.33;;;;;;;;;;5010452;28;20507;-74
2022/05/27 09:59:23;;;;;;;8.60;1.98;;;;;;;;;;5013392;28;20096;-74
2022/05/27 10:01:49;;;;;;;12.30;2.70;;;;;;;;;;5011467;28;20053;-74
2022/05/27 10:04:16;;;;;;;11.40;1.60;;;;;;;;;;5013525;28;20042;-74
2022/05/27 10:06:43;;;;;;;10.35;2.03;;;;;;;;;;5012803;28;20063;-74
2022/05/27 10:09:11;;;;;;;9.82;1.92;;;;;;;;;;4993781;28;20042;-74
2022/05/27 10:11:50;;;;;;;11.82;2.47;;;;;;;;;;4992335;28;20062;-74
2022/05/27 10:14:28;;;;;;;10.85;2.10;;;;;;;;;;5008236;28;20049;-74
2022/05/27 10:17:15;;;;;;;9.57;1.98;;;;;;;;;;5000086;28;20061;-75
2022/05/27 10:19:42;;;;;;;12.68;2.20;;;;;;;;;;5011812;28;20069;-74
2022/05/27 10:22:09;;;;;;;11.45;2.00;;;;;;;;;;5013103;28;20492;-74
2022/05/27 10:24:37;;;;;;;12.57;2.17;;;;;;;;;;5013690;28;20045;-75
2022/05/27 10:27:10;;;;;;;9.90;2.00;;;;;;;;;;5013253;28;20046;-75
2022/05/27 10:29:53;;;;;;;9.35;2.05;;;;;;;;;;5012532;28;20140;-75
2022/05/27 10:32:31;;;;;;;10.38;2.20;;;;;;;;;;5012129;28;20054;-75
2022/05/27 10:34:58;;;;;;;11.18;2.03;;;;;;;;;;5011652;28;20053;-75
2022/05/27 10:37:47;;;;;;;12.77;2.33;;;;;;;;;;5012205;28;20042;-75
2022/05/27 10:40:15;;;;;;;9.73;2.10;;;;;;;;;;5008539;28;20050;-75
2022/05/27 10:42:58;;;;;;;9.85;2.08;;;;;;;;;;5018398;28;20067;-75
2022/05/27 10:45:31;;;;;;;10.13;2.42;;;;;;;;;;5019695;28;20052;-75
2022/05/27 10:48:00;;;;;;;10.98;2.42;;;;;;;;;;5018331;28;20046;-75
2022/05/27 10:50:35;;;;;;;10.73;2.00;;;;;;;;;;5019499;28;20088;-75
2022/05/27 10:53:01;;;;;;;11.05;2.60;;;;;;;;;;5017723;28;20554;-75
2022/05/27 10:55:30;;;;;;;10.60;2.15;;;;;;;;;;5018781;28;20073;-74
2022/05/27 11:04:06;;;;;;;12.00;2.50;;;;;;;;;;5015007;28;20058;-74
2022/05/27 11:06:50;;;;;;;14.77;2.25;;;;;;;;;;5018663;28;20049;-74
2022/05/27 11:09:26;;;;;;;11.13;2.00;;;;;;;;;;5008779;28;20045;-74
2022/05/27 11:12:04;;;;;;;9.20;1.80;;;;;;;;;;5009463;28;20054;-74
2022/05/27 11:15:11;;;;;;;8.88;2.00;;;;;;;;;;5008513;28;20045;-74
2022/05/27 11:18:04;;;;;;;12.88;2.22;;;;;;;;;;5011999;28;20055;-74
2022/05/27 11:20:36;;;;;;;9.35;1.80;;;;;;;;;;4991308;28;20053;-74
2022/05/27 11:23:03;;;;;;;12.95;2.08;;;;;;;;;;5012093;28;20053;-74
2022/05/27 11:25:40;;;;;;;10.93;2.30;;;;;;;;;;5012942;28;20129;-74
2022/05/27 11:28:35;;;;;;;11.07;2.47;;;;;;;;;;5012791;28;20543;-74
2022/05/27 11:31:11;;;;;;;10.05;1.90;;;;;;;;;;4997837;28;20499;-75
2022/05/27 11:33:52;;;;;;;12.18;2.22;;;;;;;;;;5018630;28;20045;-75
2022/05/27 11:36:35;;;;;;;12.52;2.38;;;;;;;;;;5015809;28;20054;-74
2022/05/27 11:39:01;;;;;;;12.13;2.13;;;;;;;;;;5017089;28;20046;-74
2022/05/27 11:41:27;;;;;;;8.40;2.30;;;;;;;;;;5000431;28;20042;-74
2022/05/27 11:44:20;;;;;;;13.38;2.35;;;;;;;;;;5015708;28;20046;-74
2022/05/27 11:46:56;;;;;;;12.00;2.25;;;;;;;;;;5016502;28;20060;-74
2022/05/27 11:49:22;;;;;;;13.88;2.70;;;;;;;;;;5018872;28;20054;-75
2022/05/27 11:52:01;;;;;;;12.40;1.98;;;;;;;;;;5017265;28;20080;-75
2022/05/27 11:54:47;;;;;;;15.15;2.83;;;;;;;;;;5008998;28;20133;-74
2022/05/27 11:57:39;;;;;;;10.88;2.03;;;;;;;;;;4996281;28;20413;-74
2022/05/27 12:00:12;;;;;;;13.70;2.28;;;;;;;;;;4998552;28;20049;-74
2022/05/27 12:02:53;;;;;;;15.38;2.58;;;;;;;;;;5015462;28;20037;-74
2022/05/27 12:05:22;;;;;;;13.05;2.60;;;;;;;;;;4996058;28;20038;-74
2022/05/27 12:07:57;;;;;;;13.80;2.80;;;;;;;;;;4996077;28;20130;-74
2022/05/27 12:10:32;;;;;;;12.55;2.67;;;;;;;;;;4995938;28;20050;-74
2022/05/27 12:13:00;;;;;;;10.77;2.28;;;;;;;;;;4996008;28;20042;-74
2022/05/27 12:15:33;;;;;;;14.05;2.60;;;;;;;;;;5005909;28;20455;-74
2022/05/27 12:18:00;;;;;;;12.02;2.45;;;;;;;;;;5012455;28;20096;-74
2022/05/27 12:20:32;;;;;;;9.30;1.90;;;;;;;;;;5003573;28;20104;-74
2022/05/27 12:23:00;;;;;;;11.95;2.63;;;;;;;;;;5014104;28;20492;-74
2022/05/27 12:25:29;;;;;;;13.00;2.60;;;;;;;;;;5014687;28;20492;-74
2022/05/27 12:27:56;;;;;;;12.95;2.55;;;;;;;;;;4998461;28;20956;-74
2022/05/27 12:30:30;;;;;;;10.82;2.20;;;;;;;;;;5004151;28;20455;-74
2022/05/27 12:32:57;;;;;;;12.75;2.17;;;;;;;;;;5014713;28;20400;-74
2022/05/27 12:35:26;;;;;;;13.15;2.50;;;;;;;;;;5014896;28;20119;-74
2022/05/27 12:38:05;;;;;;;13.95;2.45;;;;;;;;;;5013205;28;20077;-74
2022/05/27 12:40:32;;;;;;;14.05;2.40;;;;;;;;;;5014206;28;20073;-74
2022/05/27 12:43:21;;;;;;;10.98;2.40;;;;;;;;;;5014911;28;20103;-74
2022/05/27 12:45:47;;;;;;;12.77;2.65;;;;;;;;;;5014050;28;20038;-74
2022/05/27 12:48:32;;;;;;;14.75;2.35;;;;;;;;;;5008539;28;20045;-73
2022/05/27 12:51:06;;;;;;;12.05;2.35;;;;;;;;;;5001373;28;20085;-74
2022/05/27 12:53:42;;;;;;;14.45;2.75;;;;;;;;;;4981633;28;20412;-74
2022/05/27 13:02:14;;;;;;;11.27;2.40;;;;;;;;;;4995102;28;20488;-74
2022/05/27 13:04:50;;;;;;;9.90;2.63;;;;;;;;;;4997451;28;20042;-74
2022/05/27 13:07:20;;;;;;;13.35;2.35;;;;;;;;;;5014275;28;20038;-74
2022/05/27 13:09:48;;;;;;;13.35;2.60;;;;;;;;;;5013400;28;20088;-74
2022/05/27 13:12:32;;;;;;;12.13;2.40;;;;;;;;;;5012943;28;20579;-74
2022/05/27 13:15:06;;;;;;;15.68;2.30;;;;;;;;;;5014163;28;20439;-74
2022/05/27 13:17:38;;;;;;;12.05;2.33;;;;;;;;;;5014064;28;20492;-74
2022/05/27 13:20:07;;;;;;;12.68;2.03;;;;;;;;;;5012717;28;20488;-75
2022/05/27 13:22:35;;;;;;;11.65;2.40;;;;;;;;;;5013483;28;20061;-75
2022/05/27 13:25:21;;;;;;;14.25;2.53;;;;;;;;;;5011145;28;20053;-74
2022/05/27 13:27:48;;;;;;;14.52;2.63;;;;;;;;;;4995847;28;20053;-75
2022/05/27 13:30:15;;;;;;;12.95;2.38;;;;;;;;;;5009430;28;20053;-75
2022/05/27 13:33:00;;;;;;;13.55;2.40;;;;;;;;;;5007930;28;20460;-75
2022/05/27 13:35:28;;;;;;;15.50;3.05;;;;;;;;;;5013808;28;20455;-75
2022/05/27 13:37:57;;;;;;;16.83;3.00;;;;;;;;;;5013224;28;20464;-75
2022/05/27 13:40:27;;;;;;;14.63;2.30;;;;;;;;;;5012989;28;20095;-74
2022/05/27 13:42:54;;;;;;;11.75;2.03;;;;;;;;;;5013726;28;20124;-74
2022/05/27 13:45:29;;;;;;;13.48;2.30;;;;;;;;;;5013333;28;20385;-74
2022/05/27 13:48:02;;;;;;;11.32;2.70;;;;;;;;;;5012546;28;20500;-74
2022/05/27 13:50:37;;;;;;;16.08;2.80;;;;;;;;;;5013345;28;20128;-74
2022/05/27 13:53:32;;;;;;;12.30;2.75;;;;;;;;;;5010976;28;20502;-75
2022/05/27 13:56:07;;;;;;;12.23;2.65;;;;;;;;;;4995241;28;20053;-74
2022/05/27 13:58:35;;;;;;;11.73;2.65;;;;;;;;;;5013486;28;20077;-74
2022/05/27 14:01:03;;;;;;;13.45;2.63;;;;;;;;;;5013335;28;20041;-74
2022/05/27 14:03:31;;;;;;;12.48;2.60;;;;;;;;;;5013098;28;20438;-74
2022/05/27 14:05:59;;;;;;;14.57;2.80;;;;;;;;;;5013522;28;20074;-75
2022/05/27 14:08:35;;;;;;;10.40;2.28;;;;;;;;;;5011478;28;20041;-72
2022/05/27 14:11:06;;;;;;;13.35;2.47;;;;;;;;;;5010877;28;20049;-75
2022/05/27 14:13:33;;;;;;;11.70;2.42;;;;;;;;;;5011427;28;20061;-75
2022/05/27 14:15:59;;;;;;;9.43;2.13;;;;;;;;;;5013186;28;20049;-75
2022/05/27 14:18:32;;;;;;;11.35;2.20;;;;;;;;;;5010269;28;20053;-75
2022/05/27 14:23:47;;;;;;;14.23;2.45;;;;;;;;;;5002351;28;20046;-74
2022/05/27 14:26:14;;;;;;;13.20;2.40;;;;;;;;;;5002010;28;20404;-74
2022/05/27 14:28:51;;;;;;;12.70;2.45;;;;;;;;;;5003845;28;20049;-74
2022/05/27 14:31:25;;;;;;;15.63;2.67;;;;;;;;;;4988639;28;20373;-74
2022/05/27 14:33:51;;;;;;;13.73;2.40;;;;;;;;;;5009775;28;20085;-75
2022/05/27 14:36:19;;;;;;;12.25;2.70;;;;;;;;;;5018678;28;20512;-75
2022/05/27 14:38:46;;;;;;;14.27;2.38;;;;;;;;;;5012756;28;20046;-75
2022/05/27 14:41:17;;;;;;;15.45;2.58;;;;;;;;;;5012360;28;20122;-74
2022/05/27 14:43:48;;;;;;;12.32;2.55;;;;;;;;;;4992050;28;20050;-74
2022/05/27 14:46:23;;;;;;;11.90;2.47;;;;;;;;;;5000523;28;20042;-74
2022/05/27 14:48:55;;;;;;;12.75;2.33;;;;;;;;;;5006428;28;20047;-74
2022/05/27 14:51:27;;;;;;;12.18;2.22;;;;;;;;;;4996745;28;20054;-74
2022/05/27 14:53:55;;;;;;;12.80;2.28;;;;;;;;;;5012800;28;20050;-74
2022/05/27 14:56:28;;;;;;;12.25;2.20;;;;;;;;;;5010342;28;20053;-74
2022/05/27 14:59:05;;;;;;;11.73;2.53;;;;;;;;;;5010227;28;20381;-73
2022/05/27 15:01:38;;;;;;;10.73;2.15;;;;;;;;;;5009194;28;20049;-74
2022/05/27 15:04:13;;;;;;;10.45;1.65;;;;;;;;;;5009981;28;20049;-75
2022/05/27 15:06:41;;;;;;;10.50;2.10;;;;;;;;;;5010749;28;20088;-75
2022/05/27 15:09:10;;;;;;;12.07;2.28;;;;;;;;;;5011599;28;20045;-74
2022/05/27 15:11:36;;;;;;;14.50;2.03;;;;;;;;;;5010523;28;20058;-74
2022/05/27 15:14:19;;;;;;;11.60;2.50;;;;;;;;;;5006503;28;20034;-74
2022/05/27 15:16:53;;;;;;;10.13;2.30;;;;;;;;;;5008270;28;20100;-74
2022/05/27 15:19:19;;;;;;;12.38;2.08;;;;;;;;;;5010997;28;20046;-74
2022/05/27 15:21:57;;;;;;;11.95;2.25;;;;;;;;;;5008379;28;20042;-75
2022/05/27 15:24:29;;;;;;;14.60;2.35;;;;;;;;;;5009462;28;20050;-75